sensor_id;sensor_type;location;lat;lon;timestamp;P1;durP1;ratioP1;P2;durP2;ratioP2
76310;SDS011;65120;59.304;18.294;2022-12-26T00:01:24;3.13;;;0.60;;
76310;SDS011;65120;59.304;18.294;2022-12-26T00:03:53;2.15;;;1.17;;
76310;SDS011;65120;59.304;18.294;2022-12-26T00:06:22;3.75;;;1.58;;
76310;SDS011;65120;59.304;18.294;2022-12-26T00:08:51;2.88;;;0.70;;
76310;SDS011;65120;59.304;18.294;2022-12-26T00:11:19;2.80;;;1.00;;
76310;SDS011;65120;59.304;18.294;2022-12-26T00:13:46;3.03;;;1.05;;
76310;SDS011;65120;59.304;18.294;2022-12-26T00:16:19;4.38;;;0.98;;
76310;SDS011;65120;59.304;18.294;2022-12-26T00:18:46;2.70;;;0.80;;
76310;SDS011;65120;59.304;18.294;2022-12-26T00:21:14;4.10;;;1.23;;
76310;SDS011;65120;59.304;18.294;2022-12-26T00:23:43;4.35;;;0.93;;
76310;SDS011;65120;59.304;18.294;2022-12-26T00:26:11;2.35;;;1.35;;
76310;SDS011;65120;59.304;18.294;2022-12-26T00:28:40;3.15;;;0.68;;
76310;SDS011;65120;59.304;18.294;2022-12-26T00:31:08;3.30;;;1.30;;
76310;SDS011;65120;59.304;18.294;2022-12-26T00:33:37;2.63;;;1.00;;
76310;SDS011;65120;59.304;18.294;2022-12-26T00:36:05;3.75;;;1.25;;
76310;SDS011;65120;59.304;18.294;2022-12-26T00:38:34;1.42;;;0.90;;
76310;SDS011;65120;59.304;18.294;2022-12-26T00:41:03;1.92;;;0.95;;
76310;SDS011;65120;59.304;18.294;2022-12-26T00:43:31;2.30;;;0.60;;
76310;SDS011;65120;59.304;18.294;2022-12-26T00:45:58;4.80;;;1.20;;
76310;SDS011;65120;59.304;18.294;2022-12-26T00:48:25;2.58;;;1.02;;
76310;SDS011;65120;59.304;18.294;2022-12-26T00:50:52;2.22;;;0.45;;
76310;SDS011;65120;59.304;18.294;2022-12-26T00:53:19;3.50;;;0.80;;
76310;SDS011;65120;59.304;18.294;2022-12-26T00:55:47;6.80;;;1.35;;
76310;SDS011;65120;59.304;18.294;2022-12-26T00:58:16;5.07;;;1.23;;
76310;SDS011;65120;59.304;18.294;2022-12-26T01:00:43;4.20;;;1.20;;
76310;SDS011;65120;59.304;18.294;2022-12-26T01:03:10;5.93;;;1.30;;
76310;SDS011;65120;59.304;18.294;2022-12-26T01:05:39;3.00;;;1.38;;
76310;SDS011;65120;59.304;18.294;2022-12-26T01:08:06;3.28;;;0.98;;
76310;SDS011;65120;59.304;18.294;2022-12-26T01:10:33;3.28;;;0.80;;
76310;SDS011;65120;59.304;18.294;2022-12-26T01:13:00;4.07;;;1.30;;
76310;SDS011;65120;59.304;18.294;2022-12-26T01:15:28;2.75;;;0.80;;
76310;SDS011;65120;59.304;18.294;2022-12-26T01:17:56;2.05;;;0.93;;
76310;SDS011;65120;59.304;18.294;2022-12-26T01:20:24;6.15;;;1.38;;
76310;SDS011;65120;59.304;18.294;2022-12-26T01:22:51;2.92;;;1.45;;
76310;SDS011;65120;59.304;18.294;2022-12-26T01:25:18;2.33;;;1.35;;
76310;SDS011;65120;59.304;18.294;2022-12-26T01:27:45;3.28;;;1.10;;
76310;SDS011;65120;59.304;18.294;2022-12-26T01:30:12;3.03;;;0.88;;
76310;SDS011;65120;59.304;18.294;2022-12-26T01:32:40;3.35;;;1.10;;
76310;SDS011;65120;59.304;18.294;2022-12-26T01:35:07;1.98;;;0.75;;
76310;SDS011;65120;59.304;18.294;2022-12-26T01:37:34;3.00;;;1.30;;
76310;SDS011;65120;59.304;18.294;2022-12-26T01:40:01;4.55;;;1.60;;
76310;SDS011;65120;59.304;18.294;2022-12-26T01:42:34;2.15;;;1.20;;
76310;SDS011;65120;59.304;18.294;2022-12-26T01:45:03;3.55;;;0.95;;
76310;SDS011;65120;59.304;18.294;2022-12-26T01:47:50;2.97;;;1.47;;
76310;SDS011;65120;59.304;18.294;2022-12-26T01:50:24;2.45;;;0.90;;
76310;SDS011;65120;59.304;18.294;2022-12-26T01:55:23;2.50;;;1.40;;
76310;SDS011;65120;59.304;18.294;2022-12-26T01:57:52;2.20;;;1.25;;
76310;SDS011;65120;59.304;18.294;2022-12-26T02:00:22;3.22;;;1.98;;
76310;SDS011;65120;59.304;18.294;2022-12-26T02:02:50;4.00;;;1.15;;
76310;SDS011;65120;59.304;18.294;2022-12-26T02:05:34;4.40;;;1.52;;
76310;SDS011;65120;59.304;18.294;2022-12-26T02:08:02;3.47;;;1.80;;
76310;SDS011;65120;59.304;18.294;2022-12-26T02:10:35;5.13;;;1.33;;
76310;SDS011;65120;59.304;18.294;2022-12-26T02:13:09;3.42;;;1.30;;
76310;SDS011;65120;59.304;18.294;2022-12-26T02:15:36;5.15;;;1.35;;
76310;SDS011;65120;59.304;18.294;2022-12-26T02:18:06;5.18;;;1.50;;
76310;SDS011;65120;59.304;18.294;2022-12-26T02:20:36;7.38;;;1.25;;
76310;SDS011;65120;59.304;18.294;2022-12-26T02:26:38;4.68;;;1.10;;
76310;SDS011;65120;59.304;18.294;2022-12-26T02:35:53;0.95;;;0.50;;
76310;SDS011;65120;59.304;18.294;2022-12-26T02:38:42;3.15;;;1.05;;
76310;SDS011;65120;59.304;18.294;2022-12-26T02:41:22;3.15;;;1.42;;
76310;SDS011;65120;59.304;18.294;2022-12-26T02:44:02;1.50;;;0.85;;
76310;SDS011;65120;59.304;18.294;2022-12-26T02:46:53;4.03;;;0.70;;
76310;SDS011;65120;59.304;18.294;2022-12-26T02:49:37;4.97;;;1.50;;
76310;SDS011;65120;59.304;18.294;2022-12-26T02:52:35;3.03;;;0.95;;
76310;SDS011;65120;59.304;18.294;2022-12-26T02:55:30;3.40;;;0.70;;
76310;SDS011;65120;59.304;18.294;2022-12-26T02:58:17;3.58;;;1.05;;
76310;SDS011;65120;59.304;18.294;2022-12-26T03:01:05;7.20;;;1.63;;
76310;SDS011;65120;59.304;18.294;2022-12-26T03:03:58;1.90;;;1.00;;
76310;SDS011;65120;59.304;18.294;2022-12-26T03:06:50;3.75;;;1.33;;
76310;SDS011;65120;59.304;18.294;2022-12-26T03:09:37;3.40;;;1.00;;
76310;SDS011;65120;59.304;18.294;2022-12-26T03:12:28;3.13;;;1.30;;
76310;SDS011;65120;59.304;18.294;2022-12-26T03:15:19;2.85;;;1.23;;
76310;SDS011;65120;59.304;18.294;2022-12-26T03:17:50;6.32;;;2.35;;
76310;SDS011;65120;59.304;18.294;2022-12-26T03:20:21;2.83;;;1.45;;
76310;SDS011;65120;59.304;18.294;2022-12-26T03:22:53;4.47;;;1.50;;
76310;SDS011;65120;59.304;18.294;2022-12-26T03:25:23;4.25;;;1.92;;
76310;SDS011;65120;59.304;18.294;2022-12-26T03:28:15;3.78;;;1.90;;
76310;SDS011;65120;59.304;18.294;2022-12-26T03:30:42;3.90;;;1.45;;
76310;SDS011;65120;59.304;18.294;2022-12-26T03:33:14;4.72;;;1.95;;
76310;SDS011;65120;59.304;18.294;2022-12-26T03:35:58;3.92;;;1.83;;
76310;SDS011;65120;59.304;18.294;2022-12-26T03:38:27;6.53;;;2.72;;
76310;SDS011;65120;59.304;18.294;2022-12-26T03:41:02;5.35;;;2.85;;
76310;SDS011;65120;59.304;18.294;2022-12-26T03:43:55;8.32;;;3.13;;
76310;SDS011;65120;59.304;18.294;2022-12-26T03:46:53;4.78;;;1.67;;
76310;SDS011;65120;59.304;18.294;2022-12-26T03:49:49;5.97;;;3.10;;
76310;SDS011;65120;59.304;18.294;2022-12-26T03:52:39;6.93;;;2.72;;
76310;SDS011;65120;59.304;18.294;2022-12-26T03:55:31;5.72;;;1.85;;
76310;SDS011;65120;59.304;18.294;2022-12-26T03:58:23;3.55;;;2.40;;
76310;SDS011;65120;59.304;18.294;2022-12-26T04:01:13;3.45;;;1.60;;
76310;SDS011;65120;59.304;18.294;2022-12-26T04:04:02;4.75;;;2.67;;
76310;SDS011;65120;59.304;18.294;2022-12-26T04:06:52;5.60;;;2.22;;
76310;SDS011;65120;59.304;18.294;2022-12-26T04:09:41;5.70;;;2.53;;
76310;SDS011;65120;59.304;18.294;2022-12-26T04:12:28;4.82;;;1.85;;
76310;SDS011;65120;59.304;18.294;2022-12-26T04:15:18;7.07;;;1.92;;
76310;SDS011;65120;59.304;18.294;2022-12-26T04:18:08;3.90;;;2.13;;
76310;SDS011;65120;59.304;18.294;2022-12-26T04:21:00;3.80;;;1.75;;
76310;SDS011;65120;59.304;18.294;2022-12-26T04:23:55;5.40;;;2.35;;
76310;SDS011;65120;59.304;18.294;2022-12-26T04:26:43;7.47;;;2.70;;
76310;SDS011;65120;59.304;18.294;2022-12-26T04:29:30;4.85;;;2.28;;
76310;SDS011;65120;59.304;18.294;2022-12-26T04:32:18;5.38;;;1.95;;
76310;SDS011;65120;59.304;18.294;2022-12-26T04:35:06;5.15;;;2.40;;
76310;SDS011;65120;59.304;18.294;2022-12-26T04:37:57;5.07;;;1.88;;
76310;SDS011;65120;59.304;18.294;2022-12-26T04:40:43;6.75;;;1.83;;
76310;SDS011;65120;59.304;18.294;2022-12-26T04:43:32;3.72;;;1.92;;
76310;SDS011;65120;59.304;18.294;2022-12-26T04:46:18;3.90;;;1.60;;
76310;SDS011;65120;59.304;18.294;2022-12-26T04:48:49;2.45;;;1.20;;
76310;SDS011;65120;59.304;18.294;2022-12-26T04:51:35;4.47;;;1.73;;
76310;SDS011;65120;59.304;18.294;2022-12-26T04:54:02;6.03;;;2.63;;
76310;SDS011;65120;59.304;18.294;2022-12-26T04:56:30;4.35;;;1.20;;
76310;SDS011;65120;59.304;18.294;2022-12-26T04:58:57;4.40;;;1.77;;
76310;SDS011;65120;59.304;18.294;2022-12-26T05:01:24;3.92;;;1.00;;
76310;SDS011;65120;59.304;18.294;2022-12-26T05:04:13;4.53;;;1.48;;
76310;SDS011;65120;59.304;18.294;2022-12-26T05:06:58;3.47;;;1.58;;
76310;SDS011;65120;59.304;18.294;2022-12-26T05:09:43;2.25;;;0.90;;
76310;SDS011;65120;59.304;18.294;2022-12-26T05:12:11;3.30;;;0.93;;
76310;SDS011;65120;59.304;18.294;2022-12-26T05:14:38;2.15;;;0.90;;
76310;SDS011;65120;59.304;18.294;2022-12-26T05:17:05;4.15;;;1.33;;
76310;SDS011;65120;59.304;18.294;2022-12-26T05:19:52;3.38;;;1.35;;
76310;SDS011;65120;59.304;18.294;2022-12-26T05:22:37;5.22;;;1.20;;
76310;SDS011;65120;59.304;18.294;2022-12-26T05:25:24;4.72;;;1.65;;
76310;SDS011;65120;59.304;18.294;2022-12-26T05:28:12;6.55;;;2.08;;
76310;SDS011;65120;59.304;18.294;2022-12-26T05:30:56;5.30;;;2.08;;
76310;SDS011;65120;59.304;18.294;2022-12-26T05:33:23;5.25;;;2.50;;
76310;SDS011;65120;59.304;18.294;2022-12-26T05:36:09;4.72;;;0.90;;
76310;SDS011;65120;59.304;18.294;2022-12-26T05:38:37;5.32;;;1.83;;
76310;SDS011;65120;59.304;18.294;2022-12-26T05:41:04;6.20;;;2.20;;
76310;SDS011;65120;59.304;18.294;2022-12-26T05:43:31;5.70;;;2.70;;
76310;SDS011;65120;59.304;18.294;2022-12-26T05:45:58;8.80;;;2.30;;
76310;SDS011;65120;59.304;18.294;2022-12-26T05:48:25;3.75;;;2.20;;
76310;SDS011;65120;59.304;18.294;2022-12-26T05:50:52;12.25;;;2.45;;
76310;SDS011;65120;59.304;18.294;2022-12-26T05:53:25;5.15;;;1.73;;
76310;SDS011;65120;59.304;18.294;2022-12-26T05:55:52;5.95;;;1.58;;
76310;SDS011;65120;59.304;18.294;2022-12-26T05:58:19;6.15;;;2.83;;
76310;SDS011;65120;59.304;18.294;2022-12-26T06:00:46;6.85;;;2.75;;
76310;SDS011;65120;59.304;18.294;2022-12-26T06:03:13;10.98;;;2.80;;
76310;SDS011;65120;59.304;18.294;2022-12-26T06:05:40;7.57;;;2.33;;
76310;SDS011;65120;59.304;18.294;2022-12-26T06:08:07;7.43;;;4.10;;
76310;SDS011;65120;59.304;18.294;2022-12-26T06:10:35;8.35;;;3.42;;
76310;SDS011;65120;59.304;18.294;2022-12-26T06:13:02;3.10;;;1.40;;
76310;SDS011;65120;59.304;18.294;2022-12-26T06:15:29;4.88;;;2.17;;
76310;SDS011;65120;59.304;18.294;2022-12-26T06:17:56;7.38;;;2.20;;
76310;SDS011;65120;59.304;18.294;2022-12-26T06:20:23;5.00;;;1.73;;
76310;SDS011;65120;59.304;18.294;2022-12-26T06:22:50;6.32;;;2.15;;
76310;SDS011;65120;59.304;18.294;2022-12-26T06:25:16;5.22;;;2.13;;
76310;SDS011;65120;59.304;18.294;2022-12-26T06:27:45;4.28;;;2.15;;
76310;SDS011;65120;59.304;18.294;2022-12-26T06:30:12;6.25;;;2.22;;
76310;SDS011;65120;59.304;18.294;2022-12-26T06:32:39;3.53;;;1.58;;
76310;SDS011;65120;59.304;18.294;2022-12-26T06:35:06;8.07;;;2.67;;
76310;SDS011;65120;59.304;18.294;2022-12-26T06:37:33;5.57;;;2.03;;
76310;SDS011;65120;59.304;18.294;2022-12-26T06:40:00;4.22;;;1.58;;
76310;SDS011;65120;59.304;18.294;2022-12-26T06:42:27;4.75;;;1.52;;
76310;SDS011;65120;59.304;18.294;2022-12-26T06:44:56;2.75;;;1.15;;
76310;SDS011;65120;59.304;18.294;2022-12-26T06:47:23;2.85;;;1.10;;
76310;SDS011;65120;59.304;18.294;2022-12-26T06:49:50;3.85;;;1.52;;
76310;SDS011;65120;59.304;18.294;2022-12-26T06:52:16;2.70;;;0.75;;
76310;SDS011;65120;59.304;18.294;2022-12-26T06:54:43;4.95;;;1.50;;
76310;SDS011;65120;59.304;18.294;2022-12-26T06:57:10;5.80;;;1.55;;
76310;SDS011;65120;59.304;18.294;2022-12-26T06:59:37;2.88;;;0.93;;
76310;SDS011;65120;59.304;18.294;2022-12-26T07:02:07;2.53;;;1.30;;
76310;SDS011;65120;59.304;18.294;2022-12-26T07:04:35;2.45;;;0.88;;
76310;SDS011;65120;59.304;18.294;2022-12-26T07:07:02;3.05;;;0.95;;
76310;SDS011;65120;59.304;18.294;2022-12-26T07:09:29;3.92;;;1.13;;
76310;SDS011;65120;59.304;18.294;2022-12-26T07:11:55;6.68;;;1.65;;
76310;SDS011;65120;59.304;18.294;2022-12-26T07:14:22;2.53;;;1.20;;
76310;SDS011;65120;59.304;18.294;2022-12-26T07:16:49;6.03;;;1.60;;
76310;SDS011;65120;59.304;18.294;2022-12-26T07:19:18;5.70;;;1.20;;
76310;SDS011;65120;59.304;18.294;2022-12-26T07:21:45;3.80;;;1.80;;
76310;SDS011;65120;59.304;18.294;2022-12-26T07:24:12;2.17;;;1.00;;
76310;SDS011;65120;59.304;18.294;2022-12-26T07:26:40;3.17;;;1.58;;
76310;SDS011;65120;59.304;18.294;2022-12-26T07:29:08;5.45;;;1.15;;
76310;SDS011;65120;59.304;18.294;2022-12-26T07:31:35;3.80;;;0.98;;
76310;SDS011;65120;59.304;18.294;2022-12-26T07:34:02;3.17;;;1.33;;
76310;SDS011;65120;59.304;18.294;2022-12-26T07:36:30;5.75;;;1.00;;
76310;SDS011;65120;59.304;18.294;2022-12-26T07:38:57;3.05;;;1.10;;
76310;SDS011;65120;59.304;18.294;2022-12-26T07:41:24;4.47;;;1.17;;
76310;SDS011;65120;59.304;18.294;2022-12-26T07:44:09;4.32;;;1.20;;
76310;SDS011;65120;59.304;18.294;2022-12-26T07:46:36;2.63;;;0.60;;
76310;SDS011;65120;59.304;18.294;2022-12-26T07:49:03;3.15;;;0.73;;
76310;SDS011;65120;59.304;18.294;2022-12-26T07:51:31;4.22;;;1.05;;
76310;SDS011;65120;59.304;18.294;2022-12-26T07:53:58;3.13;;;0.85;;
76310;SDS011;65120;59.304;18.294;2022-12-26T07:56:25;7.00;;;1.05;;
76310;SDS011;65120;59.304;18.294;2022-12-26T07:58:52;8.25;;;1.33;;
76310;SDS011;65120;59.304;18.294;2022-12-26T08:01:19;3.50;;;1.20;;
76310;SDS011;65120;59.304;18.294;2022-12-26T08:03:46;4.65;;;1.30;;
76310;SDS011;65120;59.304;18.294;2022-12-26T08:06:13;6.10;;;0.70;;
76310;SDS011;65120;59.304;18.294;2022-12-26T08:08:42;3.35;;;0.55;;
76310;SDS011;65120;59.304;18.294;2022-12-26T08:11:09;3.75;;;0.73;;
76310;SDS011;65120;59.304;18.294;2022-12-26T08:13:39;2.85;;;0.80;;
76310;SDS011;65120;59.304;18.294;2022-12-26T08:16:07;3.47;;;0.98;;
76310;SDS011;65120;59.304;18.294;2022-12-26T08:18:36;4.50;;;1.20;;
76310;SDS011;65120;59.304;18.294;2022-12-26T08:21:03;3.78;;;1.20;;
76310;SDS011;65120;59.304;18.294;2022-12-26T08:23:30;4.30;;;1.10;;
76310;SDS011;65120;59.304;18.294;2022-12-26T08:26:00;4.88;;;1.00;;
76310;SDS011;65120;59.304;18.294;2022-12-26T08:28:30;2.90;;;1.10;;
76310;SDS011;65120;59.304;18.294;2022-12-26T08:30:56;2.90;;;1.15;;
76310;SDS011;65120;59.304;18.294;2022-12-26T08:33:23;3.83;;;1.08;;
76310;SDS011;65120;59.304;18.294;2022-12-26T08:35:50;0.70;;;0.40;;
76310;SDS011;65120;59.304;18.294;2022-12-26T08:38:17;5.15;;;1.40;;
76310;SDS011;65120;59.304;18.294;2022-12-26T08:40:44;2.40;;;1.13;;
76310;SDS011;65120;59.304;18.294;2022-12-26T08:43:21;4.32;;;0.93;;
76310;SDS011;65120;59.304;18.294;2022-12-26T08:45:55;4.65;;;1.50;;
76310;SDS011;65120;59.304;18.294;2022-12-26T08:48:23;3.17;;;1.47;;
76310;SDS011;65120;59.304;18.294;2022-12-26T08:50:54;4.50;;;1.50;;
76310;SDS011;65120;59.304;18.294;2022-12-26T08:53:24;3.15;;;0.88;;
76310;SDS011;65120;59.304;18.294;2022-12-26T08:55:53;3.10;;;1.23;;
76310;SDS011;65120;59.304;18.294;2022-12-26T08:58:21;6.65;;;1.27;;
76310;SDS011;65120;59.304;18.294;2022-12-26T09:00:48;3.45;;;1.13;;
76310;SDS011;65120;59.304;18.294;2022-12-26T09:03:16;2.15;;;0.68;;
76310;SDS011;65120;59.304;18.294;2022-12-26T09:05:43;4.00;;;1.50;;
76310;SDS011;65120;59.304;18.294;2022-12-26T09:08:10;4.03;;;1.38;;
76310;SDS011;65120;59.304;18.294;2022-12-26T09:10:37;2.85;;;1.17;;
76310;SDS011;65120;59.304;18.294;2022-12-26T09:13:04;4.65;;;1.40;;
76310;SDS011;65120;59.304;18.294;2022-12-26T09:15:33;3.40;;;1.13;;
76310;SDS011;65120;59.304;18.294;2022-12-26T09:17:59;4.00;;;1.30;;
76310;SDS011;65120;59.304;18.294;2022-12-26T09:20:26;2.97;;;1.52;;
76310;SDS011;65120;59.304;18.294;2022-12-26T09:22:53;3.25;;;2.05;;
76310;SDS011;65120;59.304;18.294;2022-12-26T09:25:21;8.88;;;2.90;;
76310;SDS011;65120;59.304;18.294;2022-12-26T09:27:49;5.03;;;2.83;;
76310;SDS011;65120;59.304;18.294;2022-12-26T09:30:18;7.53;;;2.30;;
76310;SDS011;65120;59.304;18.294;2022-12-26T09:32:47;7.97;;;2.95;;
76310;SDS011;65120;59.304;18.294;2022-12-26T09:35:15;5.95;;;2.83;;
76310;SDS011;65120;59.304;18.294;2022-12-26T09:37:42;12.27;;;4.40;;
76310;SDS011;65120;59.304;18.294;2022-12-26T09:40:16;7.93;;;3.83;;
76310;SDS011;65120;59.304;18.294;2022-12-26T09:42:49;8.90;;;3.55;;
76310;SDS011;65120;59.304;18.294;2022-12-26T09:45:25;3.88;;;1.83;;
76310;SDS011;65120;59.304;18.294;2022-12-26T09:48:01;11.98;;;3.88;;
76310;SDS011;65120;59.304;18.294;2022-12-26T09:50:32;11.25;;;3.80;;
76310;SDS011;65120;59.304;18.294;2022-12-26T09:53:03;11.10;;;4.03;;
76310;SDS011;65120;59.304;18.294;2022-12-26T09:55:36;15.75;;;6.13;;
76310;SDS011;65120;59.304;18.294;2022-12-26T09:58:16;7.68;;;3.38;;
76310;SDS011;65120;59.304;18.294;2022-12-26T10:00:50;9.57;;;3.83;;
76310;SDS011;65120;59.304;18.294;2022-12-26T10:03:22;12.70;;;5.03;;
76310;SDS011;65120;59.304;18.294;2022-12-26T10:08:42;11.45;;;5.07;;
76310;SDS011;65120;59.304;18.294;2022-12-26T10:11:21;14.35;;;6.03;;
76310;SDS011;65120;59.304;18.294;2022-12-26T10:14:08;14.23;;;6.13;;
76310;SDS011;65120;59.304;18.294;2022-12-26T10:16:45;15.18;;;5.63;;
76310;SDS011;65120;59.304;18.294;2022-12-26T10:22:24;16.55;;;6.47;;
76310;SDS011;65120;59.304;18.294;2022-12-26T10:25:01;12.18;;;3.70;;
76310;SDS011;65120;59.304;18.294;2022-12-26T10:27:38;13.63;;;5.05;;
76310;SDS011;65120;59.304;18.294;2022-12-26T10:30:08;15.90;;;5.13;;
76310;SDS011;65120;59.304;18.294;2022-12-26T10:32:53;10.45;;;4.50;;
76310;SDS011;65120;59.304;18.294;2022-12-26T10:35:29;12.35;;;3.60;;
76310;SDS011;65120;59.304;18.294;2022-12-26T10:38:00;9.18;;;2.42;;
76310;SDS011;65120;59.304;18.294;2022-12-26T10:40:34;12.40;;;4.50;;
76310;SDS011;65120;59.304;18.294;2022-12-26T10:43:11;14.43;;;5.60;;
76310;SDS011;65120;59.304;18.294;2022-12-26T10:45:53;5.20;;;1.65;;
76310;SDS011;65120;59.304;18.294;2022-12-26T10:48:36;10.93;;;3.75;;
76310;SDS011;65120;59.304;18.294;2022-12-26T10:51:05;11.13;;;4.40;;
76310;SDS011;65120;59.304;18.294;2022-12-26T10:53:32;12.65;;;5.35;;
76310;SDS011;65120;59.304;18.294;2022-12-26T10:55:59;14.15;;;4.82;;
76310;SDS011;65120;59.304;18.294;2022-12-26T10:58:27;12.00;;;4.38;;
76310;SDS011;65120;59.304;18.294;2022-12-26T11:00:58;13.52;;;3.70;;
76310;SDS011;65120;59.304;18.294;2022-12-26T11:03:57;10.77;;;4.45;;
76310;SDS011;65120;59.304;18.294;2022-12-26T11:06:26;9.00;;;4.43;;
76310;SDS011;65120;59.304;18.294;2022-12-26T11:08:56;10.00;;;3.95;;
76310;SDS011;65120;59.304;18.294;2022-12-26T11:11:26;7.93;;;3.90;;
76310;SDS011;65120;59.304;18.294;2022-12-26T11:14:20;7.40;;;2.13;;
76310;SDS011;65120;59.304;18.294;2022-12-26T11:16:54;7.80;;;4.50;;
76310;SDS011;65120;59.304;18.294;2022-12-26T11:19:27;10.52;;;5.00;;
76310;SDS011;65120;59.304;18.294;2022-12-26T11:22:06;7.68;;;3.70;;
76310;SDS011;65120;59.304;18.294;2022-12-26T11:24:45;9.40;;;3.78;;
76310;SDS011;65120;59.304;18.294;2022-12-26T11:27:27;11.82;;;4.68;;
76310;SDS011;65120;59.304;18.294;2022-12-26T11:30:02;13.52;;;4.25;;
76310;SDS011;65120;59.304;18.294;2022-12-26T11:32:41;12.90;;;4.18;;
76310;SDS011;65120;59.304;18.294;2022-12-26T11:35:14;11.68;;;2.40;;
76310;SDS011;65120;59.304;18.294;2022-12-26T11:37:44;9.30;;;2.97;;
76310;SDS011;65120;59.304;18.294;2022-12-26T11:40:16;12.82;;;4.00;;
76310;SDS011;65120;59.304;18.294;2022-12-26T11:42:47;7.40;;;4.20;;
76310;SDS011;65120;59.304;18.294;2022-12-26T11:45:19;7.30;;;3.00;;
76310;SDS011;65120;59.304;18.294;2022-12-26T11:47:48;7.22;;;2.03;;
76310;SDS011;65120;59.304;18.294;2022-12-26T11:50:16;10.07;;;3.47;;
76310;SDS011;65120;59.304;18.294;2022-12-26T11:52:50;6.05;;;3.10;;
76310;SDS011;65120;59.304;18.294;2022-12-26T11:55:30;6.30;;;2.78;;
76310;SDS011;65120;59.304;18.294;2022-12-26T11:57:59;7.95;;;3.53;;
76310;SDS011;65120;59.304;18.294;2022-12-26T12:00:31;8.05;;;2.30;;
76310;SDS011;65120;59.304;18.294;2022-12-26T12:02:59;12.75;;;5.20;;
76310;SDS011;65120;59.304;18.294;2022-12-26T12:05:35;11.70;;;3.58;;
76310;SDS011;65120;59.304;18.294;2022-12-26T12:11:07;10.98;;;3.47;;
76310;SDS011;65120;59.304;18.294;2022-12-26T12:16:46;9.48;;;3.60;;
76310;SDS011;65120;59.304;18.294;2022-12-26T12:19:23;11.32;;;2.63;;
76310;SDS011;65120;59.304;18.294;2022-12-26T12:22:08;7.32;;;3.30;;
76310;SDS011;65120;59.304;18.294;2022-12-26T12:24:53;5.22;;;2.95;;
76310;SDS011;65120;59.304;18.294;2022-12-26T12:27:31;8.07;;;3.33;;
76310;SDS011;65120;59.304;18.294;2022-12-26T12:30:05;8.23;;;2.85;;
76310;SDS011;65120;59.304;18.294;2022-12-26T12:32:41;10.05;;;3.35;;
76310;SDS011;65120;59.304;18.294;2022-12-26T12:35:23;8.48;;;3.35;;
76310;SDS011;65120;59.304;18.294;2022-12-26T12:38:02;6.40;;;2.33;;
76310;SDS011;65120;59.304;18.294;2022-12-26T12:40:51;4.85;;;2.00;;
76310;SDS011;65120;59.304;18.294;2022-12-26T12:43:27;6.78;;;3.47;;
76310;SDS011;65120;59.304;18.294;2022-12-26T12:46:04;9.82;;;3.92;;
76310;SDS011;65120;59.304;18.294;2022-12-26T12:48:45;10.57;;;2.13;;
76310;SDS011;65120;59.304;18.294;2022-12-26T12:51:21;9.30;;;4.05;;
76310;SDS011;65120;59.304;18.294;2022-12-26T12:57:09;4.97;;;2.90;;
76310;SDS011;65120;59.304;18.294;2022-12-26T12:59:44;9.02;;;2.85;;
76310;SDS011;65120;59.304;18.294;2022-12-26T13:02:17;5.63;;;2.50;;
76310;SDS011;65120;59.304;18.294;2022-12-26T13:04:50;9.77;;;2.40;;
76310;SDS011;65120;59.304;18.294;2022-12-26T13:07:22;4.20;;;0.98;;
76310;SDS011;65120;59.304;18.294;2022-12-26T13:09:55;7.93;;;2.35;;
76310;SDS011;65120;59.304;18.294;2022-12-26T13:12:26;6.40;;;2.90;;
76310;SDS011;65120;59.304;18.294;2022-12-26T13:14:59;8.82;;;3.22;;
76310;SDS011;65120;59.304;18.294;2022-12-26T13:17:32;6.32;;;2.45;;
76310;SDS011;65120;59.304;18.294;2022-12-26T13:20:05;15.63;;;4.35;;
76310;SDS011;65120;59.304;18.294;2022-12-26T13:22:41;10.18;;;2.65;;
76310;SDS011;65120;59.304;18.294;2022-12-26T13:25:30;4.28;;;1.98;;
76310;SDS011;65120;59.304;18.294;2022-12-26T13:28:01;7.72;;;1.95;;
76310;SDS011;65120;59.304;18.294;2022-12-26T13:30:34;4.35;;;1.98;;
76310;SDS011;65120;59.304;18.294;2022-12-26T13:33:02;6.47;;;3.42;;
76310;SDS011;65120;59.304;18.294;2022-12-26T13:35:50;8.45;;;4.07;;
76310;SDS011;65120;59.304;18.294;2022-12-26T13:38:20;9.20;;;4.18;;
76310;SDS011;65120;59.304;18.294;2022-12-26T13:40:49;9.85;;;4.00;;
76310;SDS011;65120;59.304;18.294;2022-12-26T13:46:33;10.77;;;3.72;;
76310;SDS011;65120;59.304;18.294;2022-12-26T13:49:02;6.00;;;3.70;;
76310;SDS011;65120;59.304;18.294;2022-12-26T13:51:40;9.65;;;4.32;;
76310;SDS011;65120;59.304;18.294;2022-12-26T13:54:26;8.90;;;3.90;;
76310;SDS011;65120;59.304;18.294;2022-12-26T13:57:20;13.63;;;4.32;;
76310;SDS011;65120;59.304;18.294;2022-12-26T14:02:57;13.40;;;6.53;;
76310;SDS011;65120;59.304;18.294;2022-12-26T14:05:40;12.65;;;5.78;;
76310;SDS011;65120;59.304;18.294;2022-12-26T14:08:20;8.70;;;4.30;;
76310;SDS011;65120;59.304;18.294;2022-12-26T14:11:00;9.60;;;5.47;;
76310;SDS011;65120;59.304;18.294;2022-12-26T14:13:45;10.07;;;5.38;;
76310;SDS011;65120;59.304;18.294;2022-12-26T14:16:30;10.50;;;5.00;;
76310;SDS011;65120;59.304;18.294;2022-12-26T14:19:04;10.98;;;5.47;;
76310;SDS011;65120;59.304;18.294;2022-12-26T14:21:44;9.57;;;5.10;;
76310;SDS011;65120;59.304;18.294;2022-12-26T14:24:23;16.17;;;7.10;;
76310;SDS011;65120;59.304;18.294;2022-12-26T14:26:58;11.88;;;5.63;;
76310;SDS011;65120;59.304;18.294;2022-12-26T14:29:45;12.95;;;5.72;;
76310;SDS011;65120;59.304;18.294;2022-12-26T14:32:25;2.22;;;0.77;;
76310;SDS011;65120;59.304;18.294;2022-12-26T14:35:04;16.15;;;3.90;;
76310;SDS011;65120;59.304;18.294;2022-12-26T14:37:40;10.55;;;5.82;;
76310;SDS011;65120;59.304;18.294;2022-12-26T14:40:19;13.10;;;6.88;;
76310;SDS011;65120;59.304;18.294;2022-12-26T14:43:05;5.95;;;3.42;;
76310;SDS011;65120;59.304;18.294;2022-12-26T14:45:38;8.02;;;3.20;;
76310;SDS011;65120;59.304;18.294;2022-12-26T14:54:15;15.93;;;7.18;;
76310;SDS011;65120;59.304;18.294;2022-12-26T14:56:56;13.48;;;7.32;;
76310;SDS011;65120;59.304;18.294;2022-12-26T14:59:27;7.05;;;3.88;;
76310;SDS011;65120;59.304;18.294;2022-12-26T15:02:07;16.80;;;7.22;;
76310;SDS011;65120;59.304;18.294;2022-12-26T15:04:47;16.10;;;7.55;;
76310;SDS011;65120;59.304;18.294;2022-12-26T15:17:00;9.68;;;5.22;;
76310;SDS011;65120;59.304;18.294;2022-12-26T15:19:52;13.35;;;6.65;;
76310;SDS011;65120;59.304;18.294;2022-12-26T15:22:45;14.70;;;7.40;;
76310;SDS011;65120;59.304;18.294;2022-12-26T15:25:46;12.93;;;7.78;;
76310;SDS011;65120;59.304;18.294;2022-12-26T15:31:32;12.30;;;7.07;;
76310;SDS011;65120;59.304;18.294;2022-12-26T15:34:18;15.90;;;6.88;;
76310;SDS011;65120;59.304;18.294;2022-12-26T15:37:06;14.43;;;6.57;;
76310;SDS011;65120;59.304;18.294;2022-12-26T15:39:41;20.75;;;7.55;;
76310;SDS011;65120;59.304;18.294;2022-12-26T15:42:21;11.00;;;6.80;;
76310;SDS011;65120;59.304;18.294;2022-12-26T15:44:56;16.02;;;6.95;;
76310;SDS011;65120;59.304;18.294;2022-12-26T15:47:35;15.57;;;6.57;;
76310;SDS011;65120;59.304;18.294;2022-12-26T15:50:15;11.77;;;4.97;;
76310;SDS011;65120;59.304;18.294;2022-12-26T15:52:54;17.73;;;8.40;;
76310;SDS011;65120;59.304;18.294;2022-12-26T15:55:49;9.10;;;4.05;;
76310;SDS011;65120;59.304;18.294;2022-12-26T15:58:34;11.80;;;6.30;;
76310;SDS011;65120;59.304;18.294;2022-12-26T16:04:05;14.45;;;4.43;;
76310;SDS011;65120;59.304;18.294;2022-12-26T16:06:47;15.00;;;6.57;;
76310;SDS011;65120;59.304;18.294;2022-12-26T16:09:29;17.33;;;8.98;;